Time;durP1;ratioP1;P1;durP2;ratioP2;P2;SDS_P1;SDS_P2;PMS_P1;PMS_P2;Temp;Humidity;BMP_temperature;BMP_pressure;BME280_temperature;BME280_humidity;BME280_pressure;Samples;Min_cycle;Max_cycle;Signal;HPM_P1;HPM_P2
2022/10/11 00:02:09;;;;;;;9.30;5.03;;;6.70;99.90;;;;;;5114204;28;20640;-70
2022/10/11 00:04:36;;;;;;;8.83;4.57;;;6.80;99.90;;;;;;5114897;28;20205;-71
2022/10/11 00:07:03;;;;;;;8.93;5.00;;;6.80;99.90;;;;;;5113810;28;20633;-70
2022/10/11 00:09:31;;;;;;;11.63;5.10;;;6.80;99.90;;;;;;5115176;28;20205;-69
2022/10/11 00:11:58;;;;;;;8.73;5.00;;;6.80;99.90;;;;;;5114126;28;20210;-70
2022/10/11 00:14:26;;;;;;;10.70;5.00;;;6.80;99.90;;;;;;5114691;28;20238;-70
2022/10/11 00:16:53;;;;;;;9.57;4.77;;;6.70;99.90;;;;;;5114936;28;20230;-70
2022/10/11 00:19:20;;;;;;;12.17;5.10;;;6.80;99.90;;;;;;5115015;28;20235;-70
2022/10/11 00:21:47;;;;;;;10.77;4.70;;;6.70;99.90;;;;;;5113830;28;20219;-70
2022/10/11 00:24:14;;;;;;;9.03;4.40;;;6.80;99.90;;;;;;5114977;27;20199;-68
2022/10/11 00:26:43;;;;;;;9.70;5.17;;;6.80;99.90;;;;;;5114807;28;20556;-69
2022/10/11 00:29:11;;;;;;;11.00;6.53;;;6.80;99.90;;;;;;5113860;28;20208;-69
2022/10/11 00:31:38;;;;;;;12.67;6.57;;;6.80;99.90;;;;;;5113343;28;20652;-70
2022/10/11 00:34:05;;;;;;;12.23;6.50;;;6.70;99.90;;;;;;5114296;28;20211;-70
2022/10/11 00:36:32;;;;;;;10.97;6.70;;;6.70;99.90;;;;;;5114530;28;20211;-69
2022/10/11 00:38:59;;;;;;;13.90;7.47;;;6.70;99.90;;;;;;5114546;28;20308;-70
2022/10/11 00:41:26;;;;;;;16.63;8.87;;;6.70;99.90;;;;;;5112276;28;20195;-69
2022/10/11 00:44:10;;;;;;;12.73;7.47;;;6.60;99.90;;;;;;5114367;28;20653;-68
2022/10/11 00:46:37;;;;;;;15.90;9.87;;;6.50;99.90;;;;;;5114478;28;20203;-70
2022/10/11 00:49:11;;;;;;;18.87;9.97;;;6.40;99.90;;;;;;5114116;28;20207;-70
2022/10/11 00:51:45;;;;;;;17.53;10.13;;;6.20;99.90;;;;;;5110882;28;20203;-70
2022/10/11 00:54:16;;;;;;;19.70;11.13;;;6.20;99.90;;;;;;5114401;28;20196;-71
2022/10/11 00:56:45;;;;;;;19.33;11.17;;;6.00;99.90;;;;;;5114264;27;20198;-70
2022/10/11 00:59:18;;;;;;;19.00;10.53;;;5.90;99.90;;;;;;5114460;28;20573;-70
2022/10/11 01:01:45;;;;;;;18.57;9.97;;;5.90;99.90;;;;;;5113665;28;20211;-70
2022/10/11 01:04:12;;;;;;;17.90;9.97;;;5.90;99.90;;;;;;5114363;28;20203;-69
2022/10/11 01:06:40;;;;;;;17.53;9.50;;;5.90;99.90;;;;;;5112245;28;20218;-70
2022/10/11 01:09:07;;;;;;;16.93;9.43;;;5.80;99.90;;;;;;5113604;28;20210;-70
2022/10/11 01:11:37;;;;;;;16.00;9.10;;;5.90;99.90;;;;;;5113906;28;20203;-69
2022/10/11 01:14:31;;;;;;;16.77;9.13;;;5.80;99.90;;;;;;5113707;28;20683;-70
2022/10/11 01:17:04;;;;;;;18.37;8.33;;;5.90;99.90;;;;;;5083183;28;20200;-69
2022/10/11 01:19:58;;;;;;;15.07;8.77;;;5.90;99.90;;;;;;5113953;28;20547;-69
2022/10/11 01:22:48;;;;;;;15.83;8.10;;;5.80;99.90;;;;;;5113824;28;20232;-68
2022/10/11 01:25:26;;;;;;;16.47;8.03;;;5.80;99.90;;;;;;5113536;28;20211;-69
2022/10/11 01:28:06;;;;;;;14.77;7.30;;;5.80;99.90;;;;;;5112704;28;20556;-73
2022/10/11 01:30:36;;;;;;;12.73;7.20;;;5.80;99.90;;;;;;5113840;28;20195;-70
2022/10/11 01:33:18;;;;;;;15.17;7.50;;;5.70;99.90;;;;;;5113371;28;20207;-70
2022/10/11 01:35:51;;;;;;;11.07;7.10;;;5.60;99.90;;;;;;5113485;28;20191;-69
2022/10/11 01:38:23;;;;;;;13.47;7.50;;;5.50;99.90;;;;;;5112119;28;20199;-70
2022/10/11 01:40:53;;;;;;;14.83;7.20;;;5.50;99.90;;;;;;5112329;28;20192;-69
2022/10/11 01:43:21;;;;;;;12.63;7.37;;;5.40;99.90;;;;;;5113090;28;20294;-70
2022/10/11 01:45:51;;;;;;;13.87;7.43;;;5.40;99.90;;;;;;5112952;28;20203;-69
2022/10/11 01:48:18;;;;;;;15.20;7.03;;;5.40;99.90;;;;;;5112100;28;20231;-70
2022/10/11 01:50:47;;;;;;;14.00;6.50;;;5.40;99.90;;;;;;5112813;28;20230;-69
2022/10/11 01:53:36;;;;;;;10.97;6.43;;;5.40;99.90;;;;;;5112889;28;20218;-69
2022/10/11 01:56:15;;;;;;;11.17;6.30;;;5.50;99.90;;;;;;5113149;28;20191;-69
2022/10/11 01:58:53;;;;;;;12.00;6.80;;;5.40;99.90;;;;;;5109386;28;20222;-70
2022/10/11 02:01:32;;;;;;;10.03;6.37;;;5.40;99.90;;;;;;5113065;28;20195;-70
2022/10/11 02:04:04;;;;;;;10.70;6.00;;;5.40;99.90;;;;;;5112640;28;20187;-69
2022/10/11 02:06:39;;;;;;;11.13;5.90;;;5.30;99.90;;;;;;5111640;28;20199;-70
2022/10/11 02:09:12;;;;;;;16.83;6.70;;;5.30;99.90;;;;;;5112630;28;20624;-69
2022/10/11 02:11:39;;;;;;;10.57;6.30;;;5.30;99.90;;;;;;5111562;28;20525;-70
2022/10/11 02:14:10;;;;;;;12.80;6.90;;;5.30;99.90;;;;;;5112616;28;20239;-70
2022/10/11 02:16:42;;;;;;;12.40;7.10;;;5.30;99.90;;;;;;5092035;28;20658;-70
2022/10/11 02:19:12;;;;;;;13.53;7.00;;;5.20;99.90;;;;;;5092305;28;20211;-70
2022/10/11 02:21:42;;;;;;;13.17;6.97;;;5.20;99.90;;;;;;5094576;28;20231;-70
2022/10/11 02:24:13;;;;;;;12.07;6.90;;;5.20;99.90;;;;;;5113090;28;20202;-68
2022/10/11 02:26:43;;;;;;;9.67;6.37;;;5.20;99.90;;;;;;5112322;28;20195;-69
2022/10/11 02:29:13;;;;;;;12.17;7.23;;;5.20;99.90;;;;;;5112711;28;20200;-69
2022/10/11 02:31:43;;;;;;;12.87;7.00;;;5.20;99.90;;;;;;5111413;28;20210;-69
2022/10/11 02:34:14;;;;;;;13.60;7.57;;;5.20;99.90;;;;;;5112334;28;20317;-69
2022/10/11 02:36:50;;;;;;;12.77;7.40;;;5.10;99.90;;;;;;5111880;28;20192;-69
2022/10/11 02:39:21;;;;;;;12.50;6.43;;;5.10;99.90;;;;;;5112440;28;20207;-68
2022/10/11 02:41:51;;;;;;;13.23;7.67;;;5.10;99.90;;;;;;5111485;28;20205;-69
2022/10/11 02:44:26;;;;;;;12.63;7.17;;;5.10;99.90;;;;;;5112428;28;20204;-70
2022/10/11 02:46:55;;;;;;;12.50;7.27;;;5.10;99.90;;;;;;5112026;28;20501;-68
2022/10/11 02:49:22;;;;;;;11.43;6.43;;;5.00;99.90;;;;;;5111258;28;20277;-69
2022/10/11 02:51:49;;;;;;;11.43;6.43;;;5.00;99.90;;;;;;5111905;28;20203;-69
2022/10/11 02:54:16;;;;;;;11.07;5.87;;;4.90;99.90;;;;;;5112150;28;20200;-69
2022/10/11 02:56:42;;;;;;;9.87;6.03;;;4.90;99.90;;;;;;5112015;28;20559;-69
2022/10/11 02:59:09;;;;;;;12.37;6.43;;;4.90;99.90;;;;;;5110586;28;20591;-69
2022/10/11 03:01:36;;;;;;;13.10;6.50;;;4.80;99.90;;;;;;5111832;28;20199;-68
2022/10/11 03:04:04;;;;;;;12.57;6.33;;;4.80;99.90;;;;;;5112166;28;20686;-70
2022/10/11 03:06:31;;;;;;;12.93;6.20;;;4.70;99.90;;;;;;5109403;28;20200;-70
2022/10/11 03:08:58;;;;;;;11.50;6.40;;;4.70;99.90;;;;;;5112241;28;20199;-69
2022/10/11 03:11:25;;;;;;;11.50;6.60;;;4.70;99.90;;;;;;5111220;28;20207;-69
2022/10/11 03:13:52;;;;;;;11.90;6.70;;;4.70;99.90;;;;;;5111677;28;20731;-70
2022/10/11 03:16:19;;;;;;;9.67;6.50;;;4.60;99.90;;;;;;5111973;28;20246;-69
2022/10/11 03:18:45;;;;;;;10.83;6.50;;;4.60;99.90;;;;;;5112047;28;20203;-69
2022/10/11 03:21:14;;;;;;;10.70;7.00;;;4.50;99.90;;;;;;5112120;28;20596;-70
2022/10/11 03:23:41;;;;;;;10.40;6.30;;;4.50;99.90;;;;;;5111207;28;20203;-70
2022/10/11 03:26:08;;;;;;;12.73;6.70;;;4.50;99.90;;;;;;5111677;28;20246;-69
2022/10/11 03:28:35;;;;;;;12.63;6.83;;;4.50;99.90;;;;;;5111642;28;20552;-69
2022/10/11 03:31:01;;;;;;;12.87;6.57;;;4.50;99.90;;;;;;5111177;28;20563;-70
2022/10/11 03:33:28;;;;;;;13.30;6.90;;;4.50;99.90;;;;;;5111620;28;20545;-70
2022/10/11 03:35:55;;;;;;;13.47;6.90;;;4.50;99.90;;;;;;5111866;28;20669;-70
2022/10/11 03:38:23;;;;;;;10.53;6.47;;;4.40;99.90;;;;;;5111629;28;20579;-70
2022/10/11 03:40:50;;;;;;;9.50;6.10;;;4.50;99.90;;;;;;5110867;28;20215;-70
2022/10/11 03:43:17;;;;;;;7.63;5.20;;;4.40;99.90;;;;;;5111512;28;20203;-68
2022/10/11 03:45:44;;;;;;;11.70;6.00;;;4.40;99.90;;;;;;5111645;28;20203;-70
2022/10/11 03:48:11;;;;;;;8.80;5.23;;;4.50;99.90;;;;;;5110719;28;20196;-68
2022/10/11 03:50:39;;;;;;;9.23;4.77;;;4.50;99.90;;;;;;5111359;28;20199;-69
2022/10/11 03:53:08;;;;;;;13.70;7.40;;;4.50;99.90;;;;;;5111978;28;20210;-69
2022/10/11 03:55:38;;;;;;;9.27;5.60;;;4.50;99.90;;;;;;5111596;28;20240;-70
2022/10/11 03:58:05;;;;;;;8.83;5.40;;;4.50;99.90;;;;;;5110490;28;20215;-68
2022/10/11 04:00:32;;;;;;;12.03;6.00;;;4.50;99.90;;;;;;5110035;28;20222;-70
2022/10/11 04:02:59;;;;;;;19.07;7.17;;;4.40;99.90;;;;;;5112006;28;20218;-68
2022/10/11 04:05:26;;;;;;;15.40;7.03;;;4.30;99.90;;;;;;5115275;28;20213;-67
2022/10/11 04:07:53;;;;;;;13.50;7.23;;;4.30;99.90;;;;;;5115046;27;20563;-68
2022/10/11 04:10:19;;;;;;;15.23;7.17;;;4.20;99.90;;;;;;5114979;28;20207;-70
2022/10/11 04:12:48;;;;;;;13.00;7.27;;;4.20;99.90;;;;;;5115243;28;20210;-69
2022/10/11 04:15:15;;;;;;;13.10;6.90;;;4.00;99.90;;;;;;5114947;28;20242;-69
2022/10/11 04:17:42;;;;;;;10.07;6.20;;;4.00;99.90;;;;;;5115040;28;20203;-69
2022/10/11 04:20:10;;;;;;;13.57;6.33;;;4.00;99.90;;;;;;5114318;28;20223;-68
2022/10/11 04:22:37;;;;;;;13.60;6.77;;;4.00;99.90;;;;;;5114500;28;20234;-71
2022/10/11 04:25:04;;;;;;;11.97;6.40;;;4.00;99.90;;;;;;5114697;28;20203;-70
2022/10/11 04:27:31;;;;;;;10.50;6.17;;;4.10;99.90;;;;;;5114742;28;20207;-68
2022/10/11 04:29:59;;;;;;;9.83;5.73;;;4.10;99.90;;;;;;5113027;28;20199;-68
2022/10/11 04:32:26;;;;;;;10.50;5.53;;;4.10;99.90;;;;;;5114985;28;20657;-70
2022/10/11 04:34:53;;;;;;;9.20;5.63;;;4.10;99.90;;;;;;5115050;28;20203;-69
2022/10/11 04:37:20;;;;;;;13.60;6.73;;;4.20;99.90;;;;;;5114556;28;20206;-70
2022/10/11 04:39:47;;;;;;;12.67;6.90;;;4.20;99.90;;;;;;5113190;28;20224;-71
2022/10/11 04:42:13;;;;;;;10.67;6.27;;;4.20;99.90;;;;;;5114022;28;20204;-71
2022/10/11 04:44:40;;;;;;;11.30;6.37;;;4.20;99.90;;;;;;5114800;28;20220;-69
2022/10/11 04:47:08;;;;;;;10.73;6.60;;;4.20;99.90;;;;;;5109222;28;20200;-69
2022/10/11 04:49:35;;;;;;;14.90;8.00;;;4.20;99.90;;;;;;5114109;27;20200;-68
2022/10/11 04:52:02;;;;;;;11.27;6.53;;;4.30;99.90;;;;;;5113807;28;20199;-69
2022/10/11 04:54:28;;;;;;;11.20;6.47;;;4.30;99.90;;;;;;5108065;28;20215;-69
2022/10/11 04:56:55;;;;;;;8.07;5.60;;;4.30;99.90;;;;;;5103419;28;20207;-68
2022/10/11 04:59:22;;;;;;;13.23;6.10;;;4.40;99.90;;;;;;5103280;28;20206;-69
2022/10/11 05:01:49;;;;;;;13.50;6.63;;;4.40;99.90;;;;;;5102268;28;20192;-71
2022/10/11 05:04:17;;;;;;;10.57;6.20;;;4.40;99.90;;;;;;5104728;28;20203;-69
2022/10/11 05:06:44;;;;;;;13.47;6.27;;;4.50;99.90;;;;;;5106395;28;20219;-68
2022/10/11 05:09:10;;;;;;;13.40;5.50;;;4.50;99.90;;;;;;5102082;28;20218;-69
2022/10/11 05:11:37;;;;;;;7.90;5.67;;;4.50;99.90;;;;;;5105373;28;20215;-70
2022/10/11 05:14:04;;;;;;;15.23;6.27;;;4.60;99.90;;;;;;5103624;28;20231;-69
2022/10/11 05:16:31;;;;;;;7.67;5.23;;;4.60;99.90;;;;;;5102347;28;20203;-68
2022/10/11 05:18:58;;;;;;;8.97;6.10;;;4.70;99.90;;;;;;5101115;28;20204;-69
2022/10/11 05:21:28;;;;;;;11.87;5.80;;;4.70;99.90;;;;;;5103267;28;20215;-68
2022/10/11 05:23:56;;;;;;;12.80;6.10;;;4.70;99.90;;;;;;5101747;28;20195;-69
2022/10/11 05:26:24;;;;;;;13.27;5.97;;;4.70;99.90;;;;;;5107465;28;20542;-70
2022/10/11 05:28:52;;;;;;;10.70;5.00;;;4.70;99.90;;;;;;5114097;28;20252;-68
2022/10/11 05:31:19;;;;;;;8.63;5.40;;;4.70;99.90;;;;;;5112514;28;20769;-69
2022/10/11 05:33:46;;;;;;;7.47;4.83;;;4.70;99.90;;;;;;5113602;28;20252;-70
2022/10/11 05:36:13;;;;;;;7.17;4.17;;;4.70;99.90;;;;;;5113511;28;20693;-68
2022/10/11 05:38:41;;;;;;;8.27;4.70;;;4.80;99.90;;;;;;5113380;28;20219;-67
2022/10/11 05:41:08;;;;;;;7.23;4.40;;;4.80;99.90;;;;;;5110657;28;20215;-70
2022/10/11 05:43:35;;;;;;;10.47;3.90;;;4.90;99.90;;;;;;5113466;28;20203;-68
2022/10/11 05:46:02;;;;;;;7.60;4.27;;;4.90;99.90;;;;;;5113262;28;20225;-68
2022/10/11 05:48:29;;;;;;;12.07;4.70;;;5.00;99.90;;;;;;5110264;28;20207;-70
2022/10/11 05:51:00;;;;;;;10.20;4.73;;;5.00;99.90;;;;;;5111992;28;20548;-69
2022/10/11 05:53:27;;;;;;;9.73;4.30;;;5.00;99.90;;;;;;5105717;28;20542;-69
2022/10/11 05:55:56;;;;;;;7.23;4.67;;;5.10;99.90;;;;;;5105522;28;20196;-68
2022/10/11 05:58:23;;;;;;;8.00;4.00;;;5.20;99.90;;;;;;5105054;28;20860;-69
2022/10/11 06:00:50;;;;;;;10.73;4.43;;;5.30;99.90;;;;;;5101916;28;20222;-69
2022/10/11 06:03:18;;;;;;;8.73;5.00;;;5.30;99.90;;;;;;5105287;28;20215;-71
2022/10/11 06:05:45;;;;;;;12.33;4.80;;;5.30;99.90;;;;;;5103175;28;20699;-69
2022/10/11 06:08:12;;;;;;;13.00;5.27;;;5.40;99.90;;;;;;5111906;28;20203;-69
2022/10/11 06:10:40;;;;;;;10.77;5.13;;;5.50;99.90;;;;;;5112756;28;20206;-69
2022/10/11 06:13:09;;;;;;;6.97;4.30;;;5.60;99.90;;;;;;5112201;28;20213;-68
2022/10/11 06:15:38;;;;;;;7.53;3.90;;;5.60;99.90;;;;;;5112937;28;20200;-69
2022/10/11 06:18:05;;;;;;;7.90;4.30;;;5.70;99.90;;;;;;5109693;28;20231;-71
2022/10/11 06:20:32;;;;;;;7.70;4.30;;;5.80;99.90;;;;;;5111351;28;20219;-69
2022/10/11 06:22:59;;;;;;;6.23;4.47;;;5.90;99.90;;;;;;5109995;28;20219;-69
2022/10/11 06:25:26;;;;;;;8.90;4.97;;;6.00;99.90;;;;;;5112615;28;20206;-68
2022/10/11 06:27:53;;;;;;;6.60;4.90;;;6.10;99.90;;;;;;5112113;28;20282;-68
2022/10/11 06:30:21;;;;;;;8.97;4.67;;;6.20;99.90;;;;;;5111711;28;20202;-68
2022/10/11 06:32:48;;;;;;;8.63;4.53;;;6.30;99.90;;;;;;5112117;28;20260;-68
2022/10/11 06:35:14;;;;;;;6.53;3.97;;;6.40;99.90;;;;;;5112660;28;20199;-71
2022/10/11 06:37:41;;;;;;;6.00;4.27;;;6.50;99.90;;;;;;5113065;28;20214;-68
2022/10/11 06:40:09;;;;;;;9.53;4.33;;;6.60;99.90;;;;;;5110658;28;20234;-69
2022/10/11 06:42:35;;;;;;;10.50;4.30;;;6.70;99.90;;;;;;5111007;28;20203;-71
2022/10/11 06:45:02;;;;;;;9.33;4.47;;;6.80;99.90;;;;;;5109337;28;20230;-70
2022/10/11 06:47:30;;;;;;;5.80;4.10;;;6.90;99.90;;;;;;5112554;28;20210;-68
2022/10/11 06:49:57;;;;;;;8.93;3.97;;;7.00;99.90;;;;;;5112589;28;20743;-70
2022/10/11 06:52:24;;;;;;;5.67;4.10;;;7.10;99.90;;;;;;5112938;28;20207;-68
2022/10/11 06:54:51;;;;;;;8.77;4.10;;;7.20;99.90;;;;;;5110775;28;20203;-69
2022/10/11 06:57:18;;;;;;;8.50;4.60;;;7.30;99.90;;;;;;5110209;28;20203;-67
2022/10/11 06:59:44;;;;;;;7.27;4.13;;;7.40;99.90;;;;;;5111747;28;20444;-69
2022/10/11 07:02:11;;;;;;;8.57;4.67;;;7.50;99.90;;;;;;5112306;28;20226;-68
2022/10/11 07:04:39;;;;;;;6.17;4.10;;;7.60;99.90;;;;;;5112589;28;20203;-68
2022/10/11 07:07:06;;;;;;;6.73;4.30;;;7.70;99.90;;;;;;5112967;28;20211;-68
2022/10/11 07:09:34;;;;;;;8.53;4.50;;;7.80;99.90;;;;;;5113030;28;20558;-67
2022/10/11 07:12:01;;;;;;;7.27;4.03;;;7.90;99.90;;;;;;5112257;28;20675;-68
2022/10/11 07:14:28;;;;;;;6.70;3.73;;;8.00;99.90;;;;;;5112444;28;20601;-68
2022/10/11 07:16:55;;;;;;;7.27;3.70;;;8.10;99.90;;;;;;5111954;28;20206;-68
2022/10/11 07:19:21;;;;;;;9.00;4.20;;;8.20;99.90;;;;;;5112213;28;20657;-69
2022/10/11 07:21:50;;;;;;;7.13;4.10;;;8.30;99.90;;;;;;5111830;28;20234;-68
2022/10/11 07:24:16;;;;;;;9.70;4.43;;;8.40;99.90;;;;;;5111685;28;20207;-69
2022/10/11 07:26:43;;;;;;;8.30;3.53;;;8.60;99.90;;;;;;5112125;28;20732;-68
2022/10/11 07:29:11;;;;;;;5.43;3.40;;;8.70;99.90;;;;;;5112901;28;20681;-68
2022/10/11 07:31:40;;;;;;;4.90;3.30;;;8.70;99.90;;;;;;5112240;28;20220;-67
2022/10/11 07:34:07;;;;;;;7.27;3.40;;;8.90;99.90;;;;;;5112249;28;20539;-69
2022/10/11 07:36:34;;;;;;;10.77;2.90;;;9.00;99.90;;;;;;5112137;28;20561;-69
2022/10/11 07:39:04;;;;;;;3.53;2.37;;;9.10;99.90;;;;;;5114232;28;20206;-68
2022/10/11 07:41:30;;;;;;;6.03;3.10;;;9.20;99.90;;;;;;5116455;28;20226;-67
2022/10/11 07:43:57;;;;;;;6.00;2.47;;;9.30;99.90;;;;;;5116356;28;20203;-69
2022/10/11 07:46:24;;;;;;;3.07;1.93;;;9.40;99.90;;;;;;5116126;28;20203;-70
2022/10/11 07:48:51;;;;;;;2.17;1.50;;;9.50;99.90;;;;;;5115868;27;20206;-72
2022/10/11 07:51:19;;;;;;;5.87;2.03;;;9.60;99.90;;;;;;5116661;28;20206;-69
2022/10/11 07:53:47;;;;;;;3.20;1.80;;;9.70;99.90;;;;;;5095380;28;20200;-68
2022/10/11 07:56:18;;;;;;;3.80;1.80;;;9.80;99.90;;;;;;5098337;28;20209;-71
2022/10/11 07:58:49;;;;;;;2.73;1.67;;;9.90;99.90;;;;;;5116012;28;20192;-70
2022/10/11 08:01:16;;;;;;;4.80;1.93;;;10.00;99.90;;;;;;5116095;28;20216;-68
2022/10/11 08:03:43;;;;;;;6.13;1.97;;;10.10;99.90;;;;;;5116308;28;20629;-68
2022/10/11 08:06:13;;;;;;;3.57;1.80;;;10.20;99.90;;;;;;5115709;28;20217;-67
2022/10/11 08:08:40;;;;;;;3.03;1.57;;;10.30;99.90;;;;;;5114723;28;20230;-69
2022/10/11 08:11:07;;;;;;;9.77;1.60;;;10.40;99.90;;;;;;5115672;28;20203;-69
2022/10/11 08:13:35;;;;;;;1.20;1.10;;;10.50;99.90;;;;;;5115474;28;20771;-68
2022/10/11 08:16:09;;;;;;;7.40;1.57;;;10.60;99.90;;;;;;5116116;28;20262;-70
2022/10/11 08:18:36;;;;;;;5.00;1.70;;;10.60;99.90;;;;;;5115936;28;20183;-69
2022/10/11 08:21:06;;;;;;;3.90;1.40;;;10.70;99.90;;;;;;5115546;28;20230;-69
2022/10/11 08:23:33;;;;;;;2.87;1.60;;;10.80;99.90;;;;;;5115355;28;20552;-68
2022/10/11 08:26:00;;;;;;;2.67;1.33;;;10.80;99.90;;;;;;5114137;28;20568;-68
2022/10/11 08:28:26;;;;;;;1.57;1.13;;;10.90;99.90;;;;;;5115468;28;20195;-69
2022/10/11 08:30:55;;;;;;;5.03;1.20;;;10.90;99.90;;;;;;5113906;28;20199;-68
2022/10/11 08:33:24;;;;;;;2.67;1.30;;;11.00;99.90;;;;;;5113680;28;20294;-69
2022/10/11 08:35:52;;;;;;;3.83;1.40;;;11.00;99.90;;;;;;5104347;28;20555;-69
2022/10/11 08:38:19;;;;;;;2.40;1.33;;;11.10;99.90;;;;;;5115761;28;20608;-68
2022/10/11 08:40:47;;;;;;;1.53;1.43;;;11.10;99.90;;;;;;5115813;28;20219;-68
2022/10/11 08:43:27;;;;;;;1.50;1.30;;;11.20;99.90;;;;;;5115880;28;20207;-70
2022/10/11 08:45:59;;;;;;;3.80;1.83;;;11.20;99.90;;;;;;5115886;28;20196;-69
2022/10/11 08:48:33;;;;;;;1.97;1.30;;;11.30;99.90;;;;;;5114929;28;20283;-69
2022/10/11 08:51:01;;;;;;;1.83;1.50;;;11.30;99.90;;;;;;5114453;28;20192;-68
2022/10/11 08:53:40;;;;;;;3.60;1.57;;;11.40;99.90;;;;;;5114047;28;21048;-70
2022/10/11 08:56:09;;;;;;;2.07;1.70;;;11.40;99.90;;;;;;5114147;28;20198;-70
2022/10/11 08:58:41;;;;;;;4.93;2.00;;;11.50;99.90;;;;;;5114211;28;20207;-68
2022/10/11 09:01:16;;;;;;;4.77;1.97;;;11.50;99.90;;;;;;5115161;28;20223;-69
2022/10/11 09:03:45;;;;;;;3.77;2.10;;;11.60;99.90;;;;;;5102885;28;20287;-69
2022/10/11 09:06:31;;;;;;;2.27;1.90;;;11.70;99.90;;;;;;5100981;28;20199;-69
2022/10/11 09:09:22;;;;;;;3.17;2.00;;;11.70;99.90;;;;;;5115917;27;20561;-70
2022/10/11 09:12:04;;;;;;;3.33;2.00;;;11.80;99.90;;;;;;5114804;28;20551;-68
2022/10/11 09:14:51;;;;;;;4.20;2.10;;;11.80;99.90;;;;;;5114373;28;20235;-68
2022/10/11 09:17:33;;;;;;;4.23;2.27;;;11.90;99.90;;;;;;5114816;28;20191;-69
2022/10/11 09:20:18;;;;;;;3.67;2.00;;;12.00;99.90;;;;;;5114898;27;20207;-67
2022/10/11 09:22:54;;;;;;;3.37;2.03;;;12.00;99.90;;;;;;5114740;28;20207;-68
2022/10/11 09:25:27;;;;;;;4.80;2.40;;;12.10;99.90;;;;;;5114788;28;20187;-69
2022/10/11 09:28:12;;;;;;;3.07;2.17;;;12.20;99.90;;;;;;5114586;27;20187;-68
2022/10/11 09:30:46;;;;;;;3.50;2.20;;;12.20;99.90;;;;;;5112911;28;20683;-67
2022/10/11 09:33:20;;;;;;;4.03;2.40;;;12.30;99.90;;;;;;5115273;28;20206;-68
2022/10/11 09:35:49;;;;;;;4.90;2.30;;;12.40;99.90;;;;;;5110972;28;20195;-68
2022/10/11 09:38:26;;;;;;;3.60;2.50;;;12.40;99.90;;;;;;5113161;28;20204;-69
2022/10/11 09:41:02;;;;;;;5.63;2.70;;;12.50;99.90;;;;;;5114282;28;20209;-66
2022/10/11 09:43:30;;;;;;;4.30;2.60;;;12.60;99.90;;;;;;5114172;28;20678;-68
2022/10/11 09:45:56;;;;;;;4.23;2.70;;;12.60;99.90;;;;;;5113738;28;20219;-70
2022/10/11 09:48:28;;;;;;;6.43;2.80;;;12.60;99.90;;;;;;5113279;28;20207;-68
2022/10/11 09:51:02;;;;;;;3.40;2.27;;;12.70;99.90;;;;;;5113914;28;20192;-70
2022/10/11 09:53:52;;;;;;;3.50;2.50;;;12.80;99.90;;;;;;5113545;28;20184;-69
2022/10/11 09:56:19;;;;;;;3.77;2.50;;;12.80;99.90;;;;;;5113995;28;20196;-68
2022/10/11 09:58:46;;;;;;;6.47;2.40;;;12.90;99.90;;;;;;5113261;28;20560;-71
2022/10/11 10:01:23;;;;;;;5.40;2.30;;;12.90;99.90;;;;;;5110976;28;20222;-69
2022/10/11 10:04:05;;;;;;;3.33;2.00;;;13.00;99.90;;;;;;5112187;28;20226;-68
2022/10/11 10:06:32;;;;;;;4.70;2.27;;;13.10;99.90;;;;;;5111376;28;20203;-69
2022/10/11 10:09:20;;;;;;;4.53;2.33;;;13.10;99.90;;;;;;5112461;28;20198;-68
2022/10/11 10:11:47;;;;;;;4.63;2.47;;;13.20;99.90;;;;;;5113241;28;20257;-69
2022/10/11 10:14:21;;;;;;;4.23;2.33;;;13.20;99.90;;;;;;5112538;28;20238;-69
2022/10/11 10:16:48;;;;;;;2.87;2.10;;;13.30;99.90;;;;;;5113064;28;20196;-68
2022/10/11 10:19:22;;;;;;;5.87;2.23;;;13.30;99.90;;;;;;5113596;28;20559;-69
2022/10/11 10:21:50;;;;;;;4.43;2.40;;;13.40;99.90;;;;;;5113032;28;20665;-69
2022/10/11 10:24:20;;;;;;;3.37;2.20;;;13.40;99.90;;;;;;5113131;28;20203;-68
2022/10/11 10:27:07;;;;;;;4.60;2.27;;;13.50;99.90;;;;;;5112978;28;20555;-71
2022/10/11 10:29:34;;;;;;;3.83;2.23;;;13.50;99.90;;;;;;5112880;28;20192;-67
2022/10/11 10:32:09;;;;;;;2.83;2.23;;;13.60;99.90;;;;;;5112683;28;20203;-66
2022/10/11 10:34:41;;;;;;;4.53;2.50;;;13.60;99.90;;;;;;5112672;28;20528;-69
2022/10/11 10:37:14;;;;;;;3.50;2.00;;;13.60;99.90;;;;;;5112957;28;20521;-69
2022/10/11 10:39:46;;;;;;;3.67;2.00;;;13.70;99.90;;;;;;5113387;28;20195;-68
2022/10/11 10:42:16;;;;;;;2.80;2.13;;;13.70;99.90;;;;;;5112452;28;20618;-70
2022/10/11 10:44:43;;;;;;;3.30;2.60;;;13.80;99.90;;;;;;5112534;28;20217;-68
2022/10/11 10:47:14;;;;;;;3.67;2.17;;;13.80;99.90;;;;;;5112312;28;20211;-67
2022/10/11 10:49:45;;;;;;;5.97;2.23;;;13.90;99.90;;;;;;5112953;28;20192;-68
2022/10/11 10:52:46;;;;;;;5.23;2.10;;;13.90;99.90;;;;;;5112837;28;20195;-69
2022/10/11 10:55:23;;;;;;;3.60;2.10;;;14.00;99.90;;;;;;5092763;28;20245;-70
2022/10/11 10:58:04;;;;;;;3.20;2.20;;;14.00;99.90;;;;;;5112456;28;20264;-69
2022/10/11 11:00:38;;;;;;;3.47;1.90;;;14.10;99.90;;;;;;5112540;28;20195;-67
2022/10/11 11:03:11;;;;;;;3.33;2.10;;;14.10;99.90;;;;;;5112236;28;20206;-69
2022/10/11 11:05:47;;;;;;;4.70;2.20;;;14.20;99.90;;;;;;5112085;28;20191;-68
2022/10/11 11:08:16;;;;;;;4.97;2.23;;;14.20;99.90;;;;;;5112118;28;20202;-68
2022/10/11 11:10:48;;;;;;;3.93;2.00;;;14.30;99.90;;;;;;5112116;28;20216;-68
2022/10/11 11:13:24;;;;;;;3.53;2.10;;;14.30;99.90;;;;;;5114919;28;20598;-69
2022/10/11 11:16:02;;;;;;;3.17;2.00;;;14.40;99.90;;;;;;5116101;28;20226;-67
2022/10/11 11:18:38;;;;;;;2.83;1.80;;;14.40;99.90;;;;;;5116565;28;20191;-68
2022/10/11 11:21:23;;;;;;;3.17;1.90;;;14.50;99.90;;;;;;5116382;28;20194;-70
2022/10/11 11:23:59;;;;;;;2.20;1.70;;;14.50;99.90;;;;;;5116364;28;20195;-68
2022/10/11 11:26:34;;;;;;;3.60;2.27;;;14.50;99.90;;;;;;5115958;28;20199;-68
2022/10/11 11:29:11;;;;;;;3.30;2.20;;;14.50;99.90;;;;;;5116439;28;20194;-69
2022/10/11 11:32:06;;;;;;;2.47;2.07;;;14.50;99.90;;;;;;5116134;28;20203;-68
2022/10/11 11:34:38;;;;;;;3.50;2.10;;;14.60;99.90;;;;;;5110575;28;20207;-68
2022/10/11 11:37:14;;;;;;;2.43;1.90;;;14.60;99.90;;;;;;5116989;28;20194;-68
2022/10/11 11:39:45;;;;;;;3.50;1.73;;;14.60;99.90;;;;;;5116481;28;20191;-69
2022/10/11 11:42:17;;;;;;;3.10;2.17;;;14.60;99.90;;;;;;5116088;28;20218;-69
2022/10/11 11:44:47;;;;;;;4.53;2.20;;;14.60;99.90;;;;;;5116149;28;20188;-69
2022/10/11 11:47:20;;;;;;;3.57;2.10;;;14.70;99.90;;;;;;5115936;28;20617;-69
2022/10/11 11:49:52;;;;;;;2.43;1.63;;;14.70;99.90;;;;;;5116097;28;20581;-68
2022/10/11 11:52:26;;;;;;;2.97;2.07;;;14.70;99.90;;;;;;5115737;28;20541;-68
2022/10/11 11:55:02;;;;;;;4.10;1.90;;;14.80;99.90;;;;;;5113523;28;20679;-69
2022/10/11 11:57:53;;;;;;;4.60;2.00;;;14.80;99.90;;;;;;5112124;28;20187;-70
2022/10/11 12:00:22;;;;;;;3.03;1.77;;;14.80;99.90;;;;;;5115532;27;20724;-68
2022/10/11 12:02:53;;;;;;;4.10;1.80;;;14.90;99.90;;;;;;5115241;28;20223;-69
2022/10/11 12:05:23;;;;;;;2.73;1.60;;;14.90;99.90;;;;;;5111075;28;20208;-67
2022/10/11 12:07:56;;;;;;;2.93;1.70;;;14.90;99.90;;;;;;5114984;28;20620;-70
2022/10/11 12:10:30;;;;;;;2.90;1.80;;;14.90;99.90;;;;;;5115067;28;20303;-68
2022/10/11 12:13:17;;;;;;;3.73;1.70;;;14.90;99.90;;;;;;5103738;28;20195;-68
2022/10/11 12:16:08;;;;;;;2.97;1.80;;;15.00;99.90;;;;;;5110670;28;20197;-68
2022/10/11 12:18:46;;;;;;;1.90;1.60;;;15.00;99.90;;;;;;5094014;28;20189;-69
2022/10/11 12:21:20;;;;;;;2.80;1.40;;;15.00;99.90;;;;;;5105988;28;20200;-69
2022/10/11 12:23:50;;;;;;;3.07;1.70;;;15.00;99.90;;;;;;5113717;28;20218;-69
2022/10/11 12:26:39;;;;;;;1.60;1.47;;;15.10;99.90;;;;;;5115028;28;20569;-69
2022/10/11 12:29:26;;;;;;;2.30;1.77;;;15.00;99.90;;;;;;5115122;28;20187;-69
2022/10/11 12:32:26;;;;;;;2.60;1.77;;;15.10;99.90;;;;;;5114955;28;20524;-68
2022/10/11 12:35:32;;;;;;;3.13;1.50;;;15.00;99.90;;;;;;5094334;28;20212;-69
2022/10/11 12:38:14;;;;;;;5.23;1.80;;;15.00;99.90;;;;;;5099992;28;20222;-71
2022/10/11 12:40:44;;;;;;;2.60;1.53;;;15.10;99.90;;;;;;5114526;28;20188;-69
2022/10/11 12:43:36;;;;;;;2.07;1.50;;;15.10;99.90;;;;;;5113533;27;20218;-69
2022/10/11 12:46:38;;;;;;;1.63;1.40;;;15.10;99.90;;;;;;5094437;28;20185;-69
2022/10/11 12:49:16;;;;;;;3.53;2.00;;;15.10;99.90;;;;;;5094609;28;20188;-72
2022/10/11 12:51:53;;;;;;;4.03;2.20;;;15.10;99.90;;;;;;5094482;28;20207;-69
2022/10/11 12:54:56;;;;;;;2.43;1.80;;;15.10;99.90;;;;;;5094028;28;20203;-68
2022/10/11 12:58:11;;;;;;;4.27;1.80;;;15.00;99.80;;;;;;5094657;28;20206;-68
2022/10/11 13:00:45;;;;;;;3.00;2.03;;;15.00;97.70;;;;;;5103521;28;20437;-67
2022/10/11 13:03:29;;;;;;;2.20;1.60;;;14.90;97.90;;;;;;5114511;28;20301;-69
2022/10/11 13:05:57;;;;;;;2.03;1.70;;;14.90;98.80;;;;;;5114321;28;20191;-69
2022/10/11 13:08:28;;;;;;;2.17;1.57;;;14.90;99.40;;;;;;5114530;28;20218;-68
2022/10/11 13:11:02;;;;;;;2.13;1.57;;;14.90;99.50;;;;;;5114293;28;20550;-68